Time;durP1;ratioP1;P1;durP2;ratioP2;P2;SDS_P1;SDS_P2;PMS_P1;PMS_P2;Temp;Humidity;BMP_temperature;BMP_pressure;BME280_temperature;BME280_humidity;BME280_pressure;Samples;Min_cycle;Max_cycle;Signal;HPM_P1;HPM_P2
2021/12/16 00:08:33;;;;;;;21.77;7.97;;;8.20;99.90;;;;;;5126752;28;20055;-71
2021/12/16 00:33:13;;;;;;;22.50;8.38;;;8.30;99.90;;;;;;5114500;28;20081;-72
2021/12/16 00:35:41;;;;;;;19.75;8.57;;;8.40;99.90;;;;;;5113742;28;20047;-72
2021/12/16 00:38:07;;;;;;;21.15;8.63;;;8.30;99.90;;;;;;5114264;28;20055;-72
2021/12/16 00:40:38;;;;;;;19.15;8.60;;;8.40;99.90;;;;;;5113814;28;20051;-71
2021/12/16 00:43:22;;;;;;;23.77;8.98;;;8.40;99.90;;;;;;5115384;27;20100;-72
2021/12/16 00:56:33;;;;;;;19.17;8.52;;;8.40;99.90;;;;;;5113626;28;20093;-72
2021/12/16 00:59:01;;;;;;;17.98;8.10;;;8.40;99.90;;;;;;5113925;28;20082;-71
2021/12/16 01:45:46;;;;;;;16.98;7.22;;;8.50;99.90;;;;;;5088923;28;20087;-72
2021/12/16 01:50:46;;;;;;;24.25;8.18;;;8.50;99.90;;;;;;5112592;28;20079;-72
2021/12/16 01:55:56;;;;;;;19.73;6.93;;;8.60;99.90;;;;;;5112366;28;20063;-71
2021/12/16 01:58:26;;;;;;;20.83;7.05;;;8.50;99.90;;;;;;5112730;28;20094;-71
2021/12/16 02:01:19;;;;;;;20.38;7.43;;;8.50;99.90;;;;;;5113440;28;20292;-72
2021/12/16 02:03:52;;;;;;;14.88;7.15;;;8.60;99.90;;;;;;5112434;28;20101;-72
2021/12/16 02:06:39;;;;;;;11.60;6.82;;;8.60;99.90;;;;;;5112327;28;20399;-72
2021/12/16 02:09:08;;;;;;;13.63;6.97;;;8.60;99.90;;;;;;5113531;28;20051;-72
2021/12/16 02:27:54;;;;;;;18.42;6.38;;;8.60;99.90;;;;;;5111516;28;20093;-72
2021/12/16 02:33:11;;;;;;;14.70;6.25;;;8.60;99.90;;;;;;5112314;28;20538;-72
2021/12/16 02:35:58;;;;;;;20.90;6.85;;;8.50;99.90;;;;;;5112116;28;20047;-73
2021/12/16 02:38:27;;;;;;;16.75;6.75;;;8.60;99.90;;;;;;5111966;28;20051;-72
2021/12/16 02:40:54;;;;;;;16.92;7.10;;;8.60;99.90;;;;;;5110939;28;20481;-72
2021/12/16 02:43:40;;;;;;;22.52;7.03;;;8.60;99.90;;;;;;5111627;28;20510;-72
2021/12/16 02:48:43;;;;;;;26.23;7.28;;;8.50;99.90;;;;;;5111516;28;20507;-72
2021/12/16 02:51:16;;;;;;;17.05;6.80;;;8.50;99.90;;;;;;5111738;28;20154;-72
2021/12/16 02:53:49;;;;;;;15.35;7.72;;;8.50;99.90;;;;;;5112422;28;20051;-72
2021/12/16 02:56:16;;;;;;;24.13;8.23;;;8.50;99.90;;;;;;5111746;28;20054;-71
2021/12/16 02:58:44;;;;;;;15.95;7.10;;;8.40;99.90;;;;;;5110983;28;20097;-71
2021/12/16 03:01:14;;;;;;;19.65;7.72;;;8.60;99.90;;;;;;5112422;28;20427;-71
2021/12/16 03:03:42;;;;;;;18.45;7.93;;;8.50;99.90;;;;;;5112291;28;20058;-72
2021/12/16 03:06:10;;;;;;;21.48;7.85;;;8.40;99.90;;;;;;5111328;28;20051;-71
2021/12/16 03:08:36;;;;;;;15.55;7.22;;;8.40;99.90;;;;;;5111330;28;20059;-71
2021/12/16 03:14:27;;;;;;;21.70;7.65;;;8.40;99.90;;;;;;5110806;28;20058;-71
2021/12/16 03:16:41;;;;;;;19.58;8.70;;;8.30;99.90;;;;;;5100308;28;20066;-71
2021/12/16 03:19:25;;;;;;;14.55;7.18;;;8.30;99.90;;;;;;5110542;28;20059;-71
2021/12/16 03:21:55;;;;;;;20.95;7.40;;;8.30;99.90;;;;;;5110843;28;20374;-71
2021/12/16 03:37:51;;;;;;;16.13;6.97;;;8.10;99.90;;;;;;5110807;28;20047;-71
2021/12/16 03:40:18;;;;;;;15.88;7.32;;;8.10;99.90;;;;;;5111135;28;20161;-72
2021/12/16 03:42:57;;;;;;;18.30;6.95;;;8.00;99.90;;;;;;5112049;28;20043;-70
2021/12/16 03:48:16;;;;;;;18.42;7.00;;;8.00;99.90;;;;;;5110112;28;20043;-71
2021/12/16 03:50:42;;;;;;;17.95;6.85;;;8.00;99.90;;;;;;5110770;28;20385;-71
2021/12/16 03:53:08;;;;;;;21.52;7.57;;;7.90;99.90;;;;;;5111334;28;20040;-71
2021/12/16 03:55:34;;;;;;;18.42;7.35;;;7.90;99.90;;;;;;5114861;28;20059;-71
2021/12/16 03:58:00;;;;;;;18.25;7.63;;;7.90;99.90;;;;;;5114533;28;20185;-72
2021/12/16 04:00:30;;;;;;;21.98;8.07;;;7.80;99.90;;;;;;5114769;28;20048;-71
2021/12/16 04:02:57;;;;;;;19.75;8.18;;;7.80;99.90;;;;;;5115699;28;20115;-71
2021/12/16 04:05:24;;;;;;;18.42;8.13;;;7.80;99.90;;;;;;5114848;28;20168;-71
2021/12/16 04:07:51;;;;;;;16.42;8.07;;;7.70;99.90;;;;;;5113984;28;20157;-72
2021/12/16 04:10:42;;;;;;;19.25;8.07;;;7.70;99.90;;;;;;5115601;28;20043;-71
2021/12/16 04:13:11;;;;;;;21.90;8.32;;;7.70;99.90;;;;;;5113767;28;20181;-71
2021/12/16 04:15:38;;;;;;;22.38;9.13;;;7.70;99.90;;;;;;5081080;28;20079;-71
2021/12/16 04:18:04;;;;;;;16.73;7.82;;;7.60;99.90;;;;;;5115098;28;20046;-71
2021/12/16 04:20:30;;;;;;;19.67;8.80;;;7.70;99.90;;;;;;5114302;28;20043;-72
2021/12/16 04:22:57;;;;;;;17.42;7.80;;;7.60;99.90;;;;;;5113936;28;20092;-72
2021/12/16 04:25:32;;;;;;;17.88;8.20;;;7.60;99.90;;;;;;5115412;27;20127;-71
2021/12/16 04:28:03;;;;;;;26.70;8.57;;;7.70;99.90;;;;;;5096697;28;20050;-71
2021/12/16 04:30:30;;;;;;;16.20;9.18;;;7.60;99.90;;;;;;5113917;28;20561;-71
2021/12/16 04:32:57;;;;;;;18.98;7.90;;;7.70;99.90;;;;;;5113784;28;20047;-71
2021/12/16 04:35:23;;;;;;;20.98;8.63;;;7.60;99.90;;;;;;5114059;28;20077;-71
2021/12/16 04:37:49;;;;;;;16.75;8.30;;;7.60;99.90;;;;;;5114869;27;20047;-71
2021/12/16 04:40:17;;;;;;;17.27;8.20;;;7.60;99.90;;;;;;5113425;28;20048;-71
2021/12/16 04:42:44;;;;;;;17.55;8.60;;;7.60;99.90;;;;;;5114932;27;20075;-71
2021/12/16 04:45:15;;;;;;;20.52;8.43;;;7.50;99.90;;;;;;5114667;28;20044;-71
2021/12/16 04:47:42;;;;;;;19.75;8.05;;;7.50;99.90;;;;;;5113385;28;20140;-71
2021/12/16 04:50:09;;;;;;;24.92;8.57;;;7.50;99.90;;;;;;5130189;27;20040;-71
2021/12/16 04:52:36;;;;;;;18.38;8.18;;;7.50;99.90;;;;;;5113959;28;20397;-72
2021/12/16 04:55:06;;;;;;;24.38;9.27;;;7.40;99.90;;;;;;5113103;28;20043;-72
2021/12/16 04:57:32;;;;;;;19.15;8.80;;;7.40;99.90;;;;;;5113631;28;20051;-72
2021/12/16 04:59:57;;;;;;;18.33;8.50;;;7.40;99.90;;;;;;5114219;28;20051;-73
2021/12/16 05:02:26;;;;;;;20.27;8.82;;;7.40;99.90;;;;;;5096685;28;20112;-72
2021/12/16 05:04:52;;;;;;;20.98;8.50;;;7.30;99.90;;;;;;5114075;28;20043;-72
2021/12/16 05:07:22;;;;;;;17.15;8.63;;;7.30;99.90;;;;;;5114098;28;20051;-72
2021/12/16 05:10:09;;;;;;;19.85;8.80;;;7.20;99.90;;;;;;5114490;28;20083;-72
2021/12/16 05:12:42;;;;;;;22.27;9.52;;;7.20;99.90;;;;;;5113015;28;20515;-72
2021/12/16 05:15:14;;;;;;;16.83;8.20;;;7.20;99.90;;;;;;5113860;28;20595;-72
2021/12/16 05:17:47;;;;;;;19.52;8.43;;;7.20;99.90;;;;;;5113995;27;20289;-72
2021/12/16 05:20:18;;;;;;;14.85;7.95;;;7.10;99.90;;;;;;5095673;28;20485;-72
2021/12/16 05:28:15;;;;;;;;;;;7.10;99.90;;;;;;5112721;28;20044;-72
2021/12/16 05:30:42;;;;;;;20.30;8.32;;;7.10;99.90;;;;;;5113114;28;19919;-72
2021/12/16 05:33:08;;;;;;;22.27;9.05;;;7.10;99.90;;;;;;5113642;28;20393;-72
2021/12/16 05:35:34;;;;;;;20.40;9.55;;;7.20;99.90;;;;;;5114081;28;20073;-72
2021/12/16 05:38:00;;;;;;;22.55;8.95;;;7.20;99.90;;;;;;5112721;28;20048;-73
2021/12/16 05:40:28;;;;;;;27.00;9.65;;;7.20;99.90;;;;;;5113946;28;20051;-71
2021/12/16 05:42:57;;;;;;;19.02;8.98;;;7.20;99.90;;;;;;5113403;28;20586;-71
2021/12/16 05:45:24;;;;;;;19.98;8.73;;;7.20;99.90;;;;;;5112425;28;20504;-72
2021/12/16 05:47:55;;;;;;;21.58;8.30;;;7.30;99.90;;;;;;5129651;27;20144;-71
2021/12/16 05:50:22;;;;;;;23.52;8.93;;;7.30;99.90;;;;;;5129245;27;20354;-71
2021/12/16 05:52:48;;;;;;;19.23;8.05;;;7.30;99.90;;;;;;5112341;28;20104;-71
2021/12/16 05:55:15;;;;;;;23.67;8.68;;;7.30;99.90;;;;;;5112169;28;20134;-71
2021/12/16 05:57:41;;;;;;;20.40;8.60;;;7.30;99.90;;;;;;5112370;28;20150;-70
2021/12/16 06:00:15;;;;;;;22.58;8.20;;;7.30;99.90;;;;;;5113315;28;20047;-71
2021/12/16 06:02:42;;;;;;;22.02;8.60;;;7.30;99.90;;;;;;5112573;28;20155;-71
2021/12/16 06:05:08;;;;;;;19.52;8.60;;;7.30;99.90;;;;;;5111576;28;20431;-71
2021/12/16 06:07:34;;;;;;;19.08;8.63;;;7.30;99.90;;;;;;5094944;28;20040;-71
2021/12/16 06:10:00;;;;;;;19.42;7.60;;;7.30;99.90;;;;;;5113363;28;20126;-71
2021/12/16 06:12:26;;;;;;;22.98;9.40;;;7.30;99.90;;;;;;5111592;28;20668;-72
2021/12/16 06:26:28;;;;;;;16.60;7.95;;;7.30;99.90;;;;;;5112738;28;20050;-72
2021/12/16 06:28:46;;;;;;;18.80;8.52;;;7.30;99.90;;;;;;5112088;28;20094;-72
2021/12/16 06:31:13;;;;;;;24.13;9.15;;;7.30;99.90;;;;;;5112599;28;20043;-71
2021/12/16 06:33:38;;;;;;;22.58;8.38;;;7.30;99.90;;;;;;5111193;28;20087;-70
2021/12/16 06:36:04;;;;;;;21.98;8.68;;;7.30;99.90;;;;;;5094612;28;20147;-71
2021/12/16 06:38:30;;;;;;;22.13;8.95;;;7.30;99.90;;;;;;5111377;28;20043;-70
2021/12/16 06:40:57;;;;;;;16.33;8.05;;;7.30;99.90;;;;;;5128886;27;20044;-72
2021/12/16 06:43:23;;;;;;;16.85;7.82;;;7.30;99.90;;;;;;5127923;27;20052;-72
2021/12/16 06:45:52;;;;;;;18.55;8.75;;;7.40;99.90;;;;;;5111690;28;20065;-72
2021/12/16 06:48:23;;;;;;;21.20;10.73;;;7.30;99.90;;;;;;5110901;28;20126;-72
2021/12/16 06:50:55;;;;;;;21.75;9.55;;;7.30;99.90;;;;;;5111513;28;20492;-72
2021/12/16 06:53:31;;;;;;;18.23;10.20;;;7.40;99.90;;;;;;5111278;28;20044;-72
2021/12/16 06:56:13;;;;;;;21.70;9.30;;;7.40;99.90;;;;;;5111309;28;20120;-71
2021/12/16 06:58:47;;;;;;;21.42;10.20;;;7.40;99.90;;;;;;5111538;28;20051;-72
2021/12/16 07:01:26;;;;;;;;;;;7.40;99.90;;;;;;5095016;28;20542;-72
2021/12/16 07:03:52;;;;;;;18.80;9.13;;;7.40;99.90;;;;;;5111559;28;19920;-70
2021/12/16 07:06:24;;;;;;;22.45;10.05;;;7.40;99.90;;;;;;5093888;28;20078;-71
2021/12/16 07:08:53;;;;;;;23.02;9.40;;;7.40;99.90;;;;;;5111300;28;20094;-70
2021/12/16 07:11:19;;;;;;;26.08;9.80;;;7.40;99.90;;;;;;5110481;28;20497;-72
2021/12/16 07:13:56;;;;;;;20.55;9.43;;;7.40;99.90;;;;;;5111762;28;20067;-71
2021/12/16 07:16:22;;;;;;;25.17;9.50;;;7.40;99.90;;;;;;5110576;28;20073;-70
2021/12/16 07:18:49;;;;;;;22.05;9.30;;;7.50;99.90;;;;;;5094024;28;20087;-71
2021/12/16 07:21:15;;;;;;;25.67;9.85;;;7.40;99.90;;;;;;5111706;28;20051;-74
2021/12/16 07:23:41;;;;;;;29.15;10.05;;;7.40;99.90;;;;;;5093791;28;20141;-71
2021/12/16 07:26:06;;;;;;;24.05;9.52;;;7.50;99.90;;;;;;5111049;28;20414;-68
2021/12/16 07:28:33;;;;;;;26.73;10.20;;;7.50;99.90;;;;;;5126997;27;20157;-69
2021/12/16 07:30:59;;;;;;;23.08;10.65;;;7.50;99.90;;;;;;5111043;28;20052;-68
2021/12/16 07:33:25;;;;;;;21.15;9.75;;;7.50;99.90;;;;;;5110400;28;20070;-69
2021/12/16 07:35:51;;;;;;;24.48;9.48;;;7.50;99.90;;;;;;5111030;28;20096;-69
2021/12/16 07:38:18;;;;;;;18.10;8.85;;;7.50;99.90;;;;;;5109691;28;20526;-71
2021/12/16 07:40:46;;;;;;;20.83;9.43;;;7.40;99.90;;;;;;5093419;28;20051;-70
2021/12/16 07:43:24;;;;;;;19.55;9.23;;;7.40;99.90;;;;;;5110933;28;20473;-70
2021/12/16 07:45:52;;;;;;;21.08;10.10;;;7.40;99.90;;;;;;5110589;28;20515;-68
2021/12/16 07:48:19;;;;;;;20.52;9.23;;;7.40;99.90;;;;;;5110008;28;20062;-72
2021/12/16 07:50:50;;;;;;;26.35;9.80;;;7.40;99.90;;;;;;5093659;28;20051;-69
2021/12/16 07:53:16;;;;;;;27.45;10.35;;;7.40;99.90;;;;;;5110627;28;20048;-73
2021/12/16 07:55:43;;;;;;;21.45;10.07;;;7.30;99.90;;;;;;5109920;28;20062;-70
2021/12/16 07:58:10;;;;;;;27.02;9.77;;;7.30;99.90;;;;;;5110814;28;20059;-68
2021/12/16 08:00:36;;;;;;;23.70;10.13;;;7.30;99.90;;;;;;5110346;28;20105;-70
2021/12/16 08:03:05;;;;;;;23.42;10.13;;;7.30;99.90;;;;;;5093538;28;20048;-69
2021/12/16 08:05:35;;;;;;;27.63;11.15;;;7.30;99.90;;;;;;5111116;28;20130;-70
2021/12/16 08:08:02;;;;;;;27.52;9.98;;;7.30;99.90;;;;;;5076892;28;20056;-70
2021/12/16 08:10:28;;;;;;;23.73;10.20;;;7.30;99.90;;;;;;5126702;28;20073;-70
2021/12/16 08:12:54;;;;;;;22.02;10.30;;;7.30;99.90;;;;;;5109834;28;20051;-69
2021/12/16 08:15:20;;;;;;;21.55;10.45;;;7.30;99.90;;;;;;5111062;28;20128;-72
2021/12/16 08:17:47;;;;;;;26.35;11.23;;;7.20;99.90;;;;;;5110121;28;20537;-69
2021/12/16 08:20:18;;;;;;;24.27;11.35;;;7.20;99.90;;;;;;5110132;28;20401;-69
2021/12/16 08:22:50;;;;;;;25.10;10.88;;;7.30;99.90;;;;;;5109862;28;20055;-69
2021/12/16 08:25:18;;;;;;;28.13;11.13;;;7.30;99.90;;;;;;5110121;28;20060;-69
2021/12/16 08:27:44;;;;;;;29.92;11.85;;;7.30;99.90;;;;;;5110770;28;20048;-68
2021/12/16 08:30:13;;;;;;;20.08;10.90;;;7.30;99.90;;;;;;5109986;28;20126;-69
2021/12/16 08:32:39;;;;;;;26.20;11.48;;;7.30;99.90;;;;;;5108725;28;20063;-68
2021/12/16 08:35:07;;;;;;;26.45;12.13;;;7.40;99.90;;;;;;5110831;28;20047;-69
2021/12/16 08:37:33;;;;;;;28.05;12.05;;;7.40;99.90;;;;;;5109615;28;20378;-68
2021/12/16 08:39:59;;;;;;;21.52;12.10;;;7.50;99.90;;;;;;5112151;28;20059;-70
2021/12/16 08:42:25;;;;;;;34.67;11.98;;;7.50;99.90;;;;;;5096245;28;20073;-69
2021/12/16 08:44:50;;;;;;;26.67;12.40;;;7.60;99.90;;;;;;5113704;28;20047;-69
2021/12/16 08:47:19;;;;;;;27.50;12.20;;;7.60;99.90;;;;;;5113379;28;20040;-69
2021/12/16 08:49:45;;;;;;;28.38;11.55;;;7.70;99.90;;;;;;5113434;28;20083;-66
2021/12/16 08:52:15;;;;;;;25.15;11.80;;;7.80;99.90;;;;;;5113879;28;20448;-69
2021/12/16 08:54:41;;;;;;;36.75;12.30;;;7.80;99.90;;;;;;5114531;28;20537;-70
2021/12/16 08:57:08;;;;;;;28.05;11.23;;;7.80;99.90;;;;;;5114173;28;20103;-69
2021/12/16 08:59:34;;;;;;;29.88;12.00;;;7.80;99.90;;;;;;5130738;27;20048;-68
2021/12/16 09:02:02;;;;;;;27.25;11.82;;;7.90;99.90;;;;;;5114817;28;20062;-68
2021/12/16 09:04:28;;;;;;;37.38;13.05;;;7.90;99.90;;;;;;5113125;28;20046;-67
2021/12/16 09:06:59;;;;;;;29.42;12.68;;;7.90;99.90;;;;;;5113509;28;20457;-68
2021/12/16 09:09:24;;;;;;;27.35;12.43;;;7.90;99.90;;;;;;5113006;28;20047;-70
2021/12/16 09:12:06;;;;;;;24.92;13.02;;;7.90;99.90;;;;;;5112371;28;20397;-68
2021/12/16 09:14:35;;;;;;;32.25;13.48;;;7.80;99.90;;;;;;5110233;28;20392;-68
2021/12/16 09:17:09;;;;;;;34.00;13.30;;;7.90;99.90;;;;;;5129408;27;20404;-68
2021/12/16 09:19:40;;;;;;;31.08;13.60;;;7.80;99.90;;;;;;5112645;28;20047;-69
2021/12/16 09:22:06;;;;;;;30.90;13.40;;;7.80;99.90;;;;;;5113270;28;20052;-68
2021/12/16 09:24:33;;;;;;;30.17;14.00;;;7.80;99.90;;;;;;5111229;28;20051;-68
2021/12/16 09:26:59;;;;;;;38.10;15.52;;;7.80;99.90;;;;;;5112579;28;20039;-69
2021/12/16 09:29:24;;;;;;;32.83;14.50;;;7.80;99.90;;;;;;5112239;28;20035;-68
2021/12/16 09:31:51;;;;;;;42.28;16.55;;;7.90;99.90;;;;;;5095768;28;20134;-69
2021/12/16 09:34:16;;;;;;;44.80;15.32;;;7.90;99.90;;;;;;5095558;28;20123;-70
2021/12/16 09:36:46;;;;;;;40.42;16.33;;;8.00;99.90;;;;;;5095322;28;20098;-68
2021/12/16 09:39:16;;;;;;;38.78;15.95;;;8.00;99.90;;;;;;5096318;28;20044;-69
2021/12/16 09:41:46;;;;;;;38.05;16.10;;;8.00;99.90;;;;;;5112584;28;20127;-68
2021/12/16 09:44:13;;;;;;;36.65;15.43;;;8.10;99.90;;;;;;5112780;28;20059;-68
2021/12/16 09:46:48;;;;;;;37.40;15.23;;;8.00;99.90;;;;;;5111655;28;20051;-67
2021/12/16 09:49:17;;;;;;;43.40;15.73;;;8.10;99.90;;;;;;5095112;28;20150;-70
2021/12/16 09:51:45;;;;;;;38.13;15.35;;;8.10;99.90;;;;;;5111584;28;20039;-68
2021/12/16 09:54:14;;;;;;;36.05;17.42;;;8.10;99.90;;;;;;5078753;28;20055;-70
2021/12/16 09:56:42;;;;;;;45.13;16.00;;;8.20;99.90;;;;;;5112074;28;20043;-68
2021/12/16 09:59:12;;;;;;;39.67;16.80;;;8.20;99.90;;;;;;5095320;28;20621;-69
2021/12/16 10:01:39;;;;;;;38.40;16.42;;;8.20;99.90;;;;;;5113315;28;20051;-69
2021/12/16 10:04:09;;;;;;;40.90;16.25;;;8.20;99.90;;;;;;5113306;28;20047;-67
2021/12/16 10:06:41;;;;;;;55.40;15.02;;;8.20;99.90;;;;;;5112779;28;20039;-67
2021/12/16 10:09:09;;;;;;;37.08;15.50;;;8.30;99.90;;;;;;5112930;28;20047;-66
2021/12/16 10:11:37;;;;;;;44.63;15.45;;;8.30;99.90;;;;;;5112425;27;20090;-69
2021/12/16 10:19:23;;;;;;;34.72;14.48;;;8.40;99.90;;;;;;5112068;28;20499;-68
2021/12/16 10:21:49;;;;;;;88.18;16.88;;;8.40;99.90;;;;;;5128446;27;20047;-68
2021/12/16 10:24:26;;;;;;;60.65;15.25;;;8.50;99.90;;;;;;5111568;28;20051;-67
2021/12/16 10:27:08;;;;;;;41.25;14.45;;;8.50;99.90;;;;;;5110776;28;20036;-67
2021/12/16 10:29:39;;;;;;;82.90;13.60;;;8.50;99.90;;;;;;5111146;28;20040;-68
2021/12/16 10:32:25;;;;;;;28.77;13.40;;;8.50;99.90;;;;;;5112810;28;20048;-68
2021/12/16 10:35:05;;;;;;;91.65;15.02;;;8.50;99.90;;;;;;5110851;28;20055;-69
2021/12/16 10:37:34;;;;;;;39.97;14.20;;;8.50;99.90;;;;;;5110713;28;20047;-68
2021/12/16 10:40:25;;;;;;;65.53;13.98;;;8.50;99.90;;;;;;5111430;28;20077;-68
2021/12/16 10:42:51;;;;;;;52.83;14.80;;;8.50;99.90;;;;;;5111059;28;20051;-68
2021/12/16 10:45:38;;;;;;;50.60;14.25;;;8.50;99.90;;;;;;5111293;28;20481;-68
2021/12/16 10:48:25;;;;;;;49.17;13.52;;;8.50;99.90;;;;;;5112345;28;20066;-68
2021/12/16 10:50:54;;;;;;;36.95;13.90;;;8.50;99.90;;;;;;5111131;28;20134;-69
2021/12/16 10:53:54;;;;;;;39.25;13.75;;;8.50;99.90;;;;;;5111352;28;20506;-66
2021/12/16 10:56:33;;;;;;;43.92;13.60;;;8.50;99.90;;;;;;5112665;28;20122;-68
2021/12/16 10:59:08;;;;;;;41.85;15.27;;;8.50;99.90;;;;;;5128168;27;20047;-68
2021/12/16 11:01:54;;;;;;;76.18;14.32;;;8.50;99.90;;;;;;5110884;28;20054;-68
2021/12/16 11:04:31;;;;;;;36.88;13.07;;;8.50;99.90;;;;;;5111482;28;20079;-67
2021/12/16 11:07:11;;;;;;;25.67;12.88;;;8.50;99.90;;;;;;5110492;28;20334;-68
2021/12/16 11:09:45;;;;;;;32.90;14.30;;;8.50;99.90;;;;;;5112104;28;20055;-70
2021/12/16 11:12:29;;;;;;;31.23;14.20;;;8.60;99.90;;;;;;5127745;27;20181;-69
2021/12/16 11:15:10;;;;;;;35.40;14.10;;;8.60;99.90;;;;;;5127986;27;20192;-67
2021/12/16 11:17:57;;;;;;;33.85;15.05;;;8.60;99.90;;;;;;5110907;28;20047;-66
2021/12/16 11:20:31;;;;;;;41.15;14.90;;;8.60;99.90;;;;;;5112179;28;20043;-67
2021/12/16 11:23:20;;;;;;;47.08;14.63;;;8.60;99.90;;;;;;5111732;28;20093;-68
2021/12/16 11:25:49;;;;;;;47.97;14.35;;;8.60;99.90;;;;;;5112011;28;20082;-68
2021/12/16 11:28:23;;;;;;;33.15;13.60;;;8.60;99.90;;;;;;5110391;28;20048;-68
2021/12/16 11:31:00;;;;;;;30.13;13.50;;;8.70;99.90;;;;;;5110378;28;20099;-67
2021/12/16 11:33:33;;;;;;;30.27;14.18;;;8.70;99.90;;;;;;5093871;28;20094;-67
2021/12/16 11:36:05;;;;;;;27.92;15.13;;;8.60;99.90;;;;;;5110656;28;20087;-67
2021/12/16 11:38:41;;;;;;;34.63;14.55;;;8.70;99.90;;;;;;5112490;28;20096;-67
2021/12/16 11:41:26;;;;;;;34.97;13.85;;;8.70;99.90;;;;;;5112045;28;20050;-68
2021/12/16 11:44:00;;;;;;;29.55;14.43;;;8.70;99.90;;;;;;5110530;28;20050;-68
2021/12/16 11:46:45;;;;;;;26.98;14.80;;;8.70;99.90;;;;;;5110899;28;20058;-68
2021/12/16 11:49:21;;;;;;;33.28;14.05;;;8.70;99.90;;;;;;5110696;28;20414;-67
2021/12/16 11:51:52;;;;;;;33.97;16.70;;;8.70;99.90;;;;;;5110693;28;20623;-68
2021/12/16 11:54:34;;;;;;;51.22;16.02;;;8.70;99.90;;;;;;5111794;28;20040;-67
2021/12/16 11:57:24;;;;;;;35.70;16.50;;;8.80;99.90;;;;;;5111599;28;20046;-67
2021/12/16 11:59:55;;;;;;;33.72;15.43;;;8.70;99.90;;;;;;5110209;28;20373;-68
2021/12/16 12:02:36;;;;;;;44.50;16.23;;;8.70;99.90;;;;;;5111791;28;20043;-68
2021/12/16 12:05:42;;;;;;;50.72;17.48;;;8.70;99.90;;;;;;5109976;28;20043;-67
2021/12/16 12:08:14;;;;;;;39.15;17.35;;;8.70;99.90;;;;;;5102131;28;20063;-68
2021/12/16 12:11:05;;;;;;;34.42;16.40;;;8.70;99.90;;;;;;5111636;28;20048;-69
2021/12/16 12:13:41;;;;;;;40.67;15.20;;;8.70;99.90;;;;;;5110053;28;20178;-67
2021/12/16 12:16:12;;;;;;;31.02;15.48;;;8.80;99.90;;;;;;5115268;28;20055;-69
2021/12/16 12:18:58;;;;;;;39.63;16.98;;;8.70;99.90;;;;;;5114259;28;20047;-67
2021/12/16 12:21:38;;;;;;;36.13;15.52;;;8.80;99.90;;;;;;5114393;28;20449;-68
2021/12/16 12:24:04;;;;;;;32.28;14.98;;;8.80;99.90;;;;;;5096614;28;20052;-67
2021/12/16 12:26:33;;;;;;;35.30;15.65;;;8.80;99.90;;;;;;5113058;28;20115;-67
2021/12/16 12:29:27;;;;;;;36.70;14.77;;;8.90;99.90;;;;;;5113579;28;20043;-67
2021/12/16 12:31:56;;;;;;;29.27;15.27;;;8.80;99.90;;;;;;5106839;28;20056;-67
2021/12/16 12:34:22;;;;;;;33.90;16.40;;;8.80;99.90;;;;;;5110028;28;20503;-67
2021/12/16 12:36:50;;;;;;;34.50;14.85;;;8.80;99.90;;;;;;5111158;28;20117;-68
2021/12/16 12:39:20;;;;;;;34.35;14.30;;;8.80;99.90;;;;;;5111470;28;20044;-69
2021/12/16 12:41:47;;;;;;;32.45;15.05;;;8.80;99.90;;;;;;5112666;28;20040;-67
2021/12/16 12:44:13;;;;;;;38.17;16.23;;;8.80;99.90;;;;;;5112407;28;20043;-66
2021/12/16 12:46:40;;;;;;;32.25;15.15;;;8.80;99.90;;;;;;5112614;28;20039;-67
2021/12/16 12:49:13;;;;;;;34.90;16.42;;;8.80;99.90;;;;;;5112430;28;20051;-66
2021/12/16 12:51:43;;;;;;;35.97;16.50;;;8.80;99.90;;;;;;5129681;27;20051;-66
2021/12/16 12:54:27;;;;;;;32.03;16.17;;;8.80;99.90;;;;;;5113597;28;20047;-68
2021/12/16 12:56:57;;;;;;;28.42;15.23;;;8.80;99.90;;;;;;5111454;28;20501;-67
2021/12/16 12:59:41;;;;;;;33.20;14.88;;;8.90;99.90;;;;;;5129777;27;20050;-66
2021/12/16 13:02:29;;;;;;;27.92;14.65;;;8.80;99.90;;;;;;5111493;28;20489;-70
2021/12/16 13:05:10;;;;;;;28.83;14.45;;;8.90;99.90;;;;;;5112460;28;20036;-68
2021/12/16 13:07:40;;;;;;;28.25;14.10;;;8.80;99.90;;;;;;5111871;28;20047;-67
2021/12/16 13:10:22;;;;;;;28.50;15.63;;;8.90;99.90;;;;;;5113719;28;20105;-67
2021/12/16 13:13:17;;;;;;;38.08;16.48;;;9.00;99.90;;;;;;5112278;28;20526;-68
2021/12/16 13:15:53;;;;;;;32.67;15.77;;;8.90;99.90;;;;;;5114137;28;20059;-66
2021/12/16 13:27:03;;;;;;;27.23;15.60;;;8.90;99.90;;;;;;5112192;28;20104;-67
2021/12/16 13:29:35;;;;;;;33.00;14.48;;;8.90;99.90;;;;;;5095545;28;20524;-69
2021/12/16 13:32:13;;;;;;;33.40;15.77;;;8.90;99.90;;;;;;5112410;28;20384;-69
2021/12/16 13:35:01;;;;;;;29.92;15.27;;;8.90;99.90;;;;;;5112591;28;20187;-68
2021/12/16 13:37:32;;;;;;;29.00;15.48;;;8.90;99.90;;;;;;5112737;28;20059;-68
2021/12/16 13:40:18;;;;;;;33.90;16.65;;;8.90;99.90;;;;;;5111908;28;20051;-67
2021/12/16 13:43:19;;;;;;;32.38;15.18;;;9.00;99.90;;;;;;5112129;28;20058;-67
2021/12/16 13:46:04;;;;;;;38.35;16.85;;;9.00;99.90;;;;;;5061912;28;20073;-67
2021/12/16 14:07:58;;;;;;;23.90;11.38;;;9.10;99.90;;;;;;5111092;28;20142;-68
2021/12/16 14:10:43;;;;;;;23.23;9.98;;;9.00;99.90;;;;;;5111471;28;20086;-67
2021/12/16 14:16:55;;;;;;;23.08;10.05;;;9.00;99.90;;;;;;5111166;28;20052;-68
2021/12/16 14:39:28;;;;;;;17.33;8.38;;;9.10;99.90;;;;;;5111290;28;20039;-68
2021/12/16 14:42:14;;;;;;;20.73;9.30;;;9.10;99.90;;;;;;5110984;28;20071;-67
2021/12/16 14:50:42;;;;;;;21.83;9.90;;;9.10;99.90;;;;;;5111045;28;20051;-67
2021/12/16 14:53:17;;;;;;;21.00;9.45;;;9.10;99.90;;;;;;5110754;28;20176;-68
2021/12/16 14:55:43;;;;;;;27.55;11.07;;;9.00;99.90;;;;;;5128646;27;20047;-68
2021/12/16 14:58:09;;;;;;;27.70;11.55;;;9.00;99.90;;;;;;5093569;28;20059;-68
2021/12/16 15:00:47;;;;;;;27.20;10.70;;;9.00;99.90;;;;;;5094367;28;20059;-68
2021/12/16 15:03:39;;;;;;;24.52;11.15;;;9.00;99.90;;;;;;5110648;28;20135;-68
2021/12/16 15:06:16;;;;;;;30.30;11.75;;;9.00;99.90;;;;;;5110546;28;20043;-70
2021/12/16 15:08:52;;;;;;;34.00;12.05;;;9.00;99.90;;;;;;5112016;28;20047;-67
2021/12/16 15:11:52;;;;;;;37.88;12.32;;;8.90;99.90;;;;;;5110129;28;20377;-68
2021/12/16 15:39:55;;;;;;;24.33;10.52;;;8.80;99.90;;;;;;5110361;28;20091;-68
2021/12/16 15:42:53;;;;;;;28.92;12.55;;;8.80;99.90;;;;;;5109957;28;20054;-67
2021/12/16 15:45:29;;;;;;;25.20;10.88;;;8.70;99.90;;;;;;5108543;28;20085;-68
2021/12/16 15:48:00;;;;;;;25.75;11.10;;;8.80;99.90;;;;;;5110986;28;20047;-67
2021/12/16 15:50:41;;;;;;;26.83;12.10;;;8.70;99.90;;;;;;5114302;28;20632;-68
2021/12/16 15:53:13;;;;;;;24.20;12.10;;;8.70;99.90;;;;;;5115845;28;20051;-70
2021/12/16 15:55:57;;;;;;;24.17;11.77;;;8.70;99.90;;;;;;5114559;28;20056;-68
2021/12/16 15:58:32;;;;;;;29.17;13.13;;;8.70;99.90;;;;;;5115475;28;20048;-68
2021/12/16 16:01:05;;;;;;;31.23;13.55;;;8.70;99.90;;;;;;5114664;28;20281;-67
2021/12/16 16:03:31;;;;;;;26.07;12.27;;;8.70;99.90;;;;;;5114314;28;20419;-67
2021/12/16 16:06:00;;;;;;;24.95;12.13;;;8.70;99.90;;;;;;5080465;28;20074;-67
2021/12/16 16:08:29;;;;;;;25.42;12.25;;;8.70;99.90;;;;;;5113989;28;20079;-68
2021/12/16 16:11:09;;;;;;;26.67;12.32;;;8.70;99.90;;;;;;5115779;28;20047;-68
2021/12/16 16:13:41;;;;;;;30.08;12.70;;;8.70;99.90;;;;;;5115330;28;20374;-68
2021/12/16 16:16:11;;;;;;;27.45;13.15;;;8.80;99.90;;;;;;5114261;28;20517;-68
2021/12/16 16:18:43;;;;;;;44.90;17.70;;;8.70;99.90;;;;;;5114228;28;20052;-67
2021/12/16 16:21:25;;;;;;;72.43;38.47;;;8.80;99.90;;;;;;5114303;28;20044;-66
2021/12/16 16:24:00;;;;;;;31.17;14.35;;;8.80;99.90;;;;;;5114210;28;20055;-67
2021/12/16 16:26:28;;;;;;;37.60;19.13;;;8.90;99.90;;;;;;5114866;28;20040;-67
2021/12/16 16:29:00;;;;;;;28.35;15.43;;;8.90;99.90;;;;;;5115085;28;20130;-67
2021/12/16 16:31:28;;;;;;;27.50;13.57;;;9.00;99.90;;;;;;5113935;28;20093;-68
2021/12/16 16:33:54;;;;;;;29.85;14.65;;;9.00;99.90;;;;;;5114234;28;20382;-69
2021/12/16 16:36:25;;;;;;;35.03;13.70;;;9.00;99.90;;;;;;5094504;28;20480;-67
2021/12/16 16:38:59;;;;;;;33.95;15.00;;;9.00;99.90;;;;;;5096457;28;20126;-67
2021/12/16 16:41:29;;;;;;;30.30;14.23;;;9.00;99.90;;;;;;5114862;28;20477;-68
2021/12/16 16:44:14;;;;;;;30.00;14.60;;;8.90;99.90;;;;;;5114350;28;20047;-69
2021/12/16 16:46:59;;;;;;;34.00;15.02;;;9.00;99.90;;;;;;5113899;28;20040;-69
2021/12/16 16:49:49;;;;;;;34.83;16.17;;;9.00;99.90;;;;;;5114656;28;20051;-67
2021/12/16 16:52:30;;;;;;;36.05;15.38;;;9.00;99.90;;;;;;5130386;27;20044;-67
2021/12/16 16:55:15;;;;;;;34.40;15.07;;;8.90;99.90;;;;;;5114467;28;20070;-67
2021/12/16 16:57:46;;;;;;;33.40;14.57;;;8.90;99.90;;;;;;5114185;27;20579;-67
2021/12/16 17:00:19;;;;;;;37.25;16.15;;;8.90;99.90;;;;;;5112993;28;20090;-69
2021/12/16 17:02:51;;;;;;;32.17;14.68;;;8.90;99.90;;;;;;5115204;28;20082;-66